Flight Track Log - Related Links

Times and Time Zones

All times are in EDT time to prevent confusion due to time zone crossing. See the ASQ5963 flight status page for this flight to view local times or setup timezone preferences in your user account.

Time Position Orientation Groundspeed Altitude Reporting Facility
EDT Latitude Longitude Course Direction KTS MPH feet Rate Location/Type
Wed 02:08:38 PM 29.9594 -95.3414 90° East 154 177 700  Level Houston Center
Wed 02:09:28 PM 29.9308 -95.3039 131° Southeast 204 235 2,000 1,462 Climbing Houston Center
Wed 02:10:37 PM 29.8886 -95.2472 131° Southeast 219 252 3,600 1,695 Climbing Houston Center
Wed 02:11:00 PM 29.9834 -94.9087 90° East  Level FlightAware Approximate
Wed 02:11:39 PM 29.8511 -95.1783 122° Southeast 255 293 5,700  Level Houston Center
Wed 02:12:00 PM 29.9834 -94.7672 90° East  Level FlightAware Approximate
Wed 02:12:41 PM 29.8344 -95.0803 101° East 258 297 8,700  Level Houston Center
Wed 02:13:00 PM 29.9833 -94.6257 90° East  Level FlightAware Approximate
Wed 02:13:43 PM 29.8467 -94.9969 80° East 278 320 10,400  Level Houston Center
Wed 02:14:45 PM 29.8778 -94.9125 67° East 287 330 12,100 1,355 Climbing Houston Center
Wed 02:15:47 PM 29.9050 -94.8150 72° East 320 368 13,200 1,008 Climbing Houston Center
Wed 02:16:50 PM 29.9397 -94.7114 69° East 343 395 14,200 912 Climbing Houston Center
Wed 02:17:52 PM 29.9764 -94.6008 69° East 366 421 15,100 1,016 Climbing Houston Center
Wed 02:18:54 PM 29.9908 -94.4622 83° East 381 438 16,300 1,065 Climbing Houston Center
Wed 02:19:56 PM 30.0053 -94.3394 82° East 388 447 17,300 919 Climbing Houston Center
Wed 02:20:58 PM 30.0200 -94.2153 82° East 391 450 18,200 1,027 Climbing Houston Center
Wed 02:22:00 PM 30.0219 -94.0665 85° East  Level FlightAware Approximate
Wed 02:23:03 PM 30.0519 -93.9328 85° East 407 468 20,500  Level Houston Center
Wed 02:24:04 PM 30.0664 -93.8011 83° East 416 479 21,500 968 Climbing Houston Center
Wed 02:25:07 PM 30.0811 -93.6681 83° East 421 484 22,500 960 Climbing Houston Center
Wed 02:26:09 PM 30.0944 -93.5344 83° East 425 489 23,500 1,065 Climbing Houston Center
Wed 02:27:11 PM 30.1119 -93.3733 83° East 428 493 24,700 1,065 Climbing Houston Center
Wed 02:28:13 PM 30.1258 -93.2364 83° East 435 501 25,700 919 Climbing Houston Center
Wed 02:29:15 PM 30.1489 -93.0997 79° East 443 510 26,600 823 Climbing Houston Center
Wed 02:30:17 PM 30.2119 -92.9753 60° Northeast 456 525 27,400 774 Climbing Houston Center
Wed 02:31:19 PM 30.2786 -92.8536 58° Northeast 454 522 28,200 871 Climbing Houston Center
Wed 02:32:21 PM 30.3622 -92.7019 57° Northeast 464 534 29,200 1,008 Climbing Houston Center
Wed 02:33:24 PM 30.4322 -92.5744 57° Northeast 469 540 30,300 1,152 Climbing Houston Center
Wed 02:34:26 PM 30.5011 -92.4444 58° Northeast 465 535 31,600 1,306 Climbing Houston Center
Wed 02:35:28 PM 30.5675 -92.3189 58° Northeast 460 529 33,000 1,258 Climbing Houston Center
Wed 02:36:30 PM 30.6339 -92.1972 58° Northeast 453 521 34,200 968 Climbing Houston Center
Wed 02:37:32 PM 30.6992 -92.0747 58° Northeast 449 517 35,000 387 Climbing Houston Center
Wed 02:38:34 PM 30.7797 -91.9242 58° Northeast 459 528 35,000  Level Houston Center
Wed 02:39:36 PM 30.8517 -91.7886 58° Northeast 486 559 35,000  Level Houston Center
Wed 02:40:38 PM 30.9261 -91.6489 58° Northeast 501 577 35,000  Level Houston Center
Wed 02:41:40 PM 31.0017 -91.5067 58° Northeast 509 586 35,000  Level Houston Center
Wed 02:42:43 PM 31.0775 -91.3628 58° Northeast 516 594 35,000  Level Houston Center
Wed 02:43:45 PM 31.1711 -91.1872 58° Northeast 524 603 35,000  Level Houston Center
Wed 02:44:47 PM 31.2447 -91.0450 59° Northeast 519 597 35,000  Level Houston Center
Wed 02:45:49 PM 31.3189 -90.9019 59° Northeast 515 593 35,000  Level Houston Center
Wed 02:46:51 PM 31.3944 -90.7578 58° Northeast 517 595 35,000  Level Houston Center
Wed 02:47:53 PM 31.4683 -90.6136 59° Northeast 514 592 35,000  Level Houston Center
Wed 02:48:55 PM 31.5417 -90.4703 59° Northeast 514 592 35,000  Level Houston Center
Wed 02:49:57 PM 31.6311 -90.2989 58° Northeast 511 588 35,000  Level Houston Center
Wed 02:51:00 PM 31.7019 -90.1564 60° Northeast 504 580 35,000  Level Houston Center
Wed 02:52:02 PM 31.7742 -90.0158 59° Northeast 503 579 35,000  Level Houston Center
Wed 02:53:04 PM 31.8447 -89.8769 59° Northeast 497 572 35,000  Level Houston Center
Wed 02:54:14 PM 31.9269 -89.7111 60° Northeast 499 574 35,000  Level Memphis Center
Wed 02:55:14 PM 31.9972 -89.5711 59° Northeast 489 563 35,000  Level Memphis Center
Wed 02:56:14 PM 32.0672 -89.4331 59° Northeast 489 563 35,000  Level Memphis Center
Wed 02:57:14 PM 32.1433 -89.2778 60° Northeast 492 566 35,000  Level Memphis Center
Wed 02:58:14 PM 32.2150 -89.1369 59° Northeast 492 566 35,000  Level Memphis Center
Wed 02:59:14 PM 32.2825 -89.0008 60° Northeast 492 566 35,000  Level Memphis Center
Wed 03:00:14 PM 32.3517 -88.8597 60° Northeast 492 566 35,000  Level Memphis Center
Wed 03:01:14 PM 32.4317 -88.7303 54° Northeast 492 566 35,000  Level Memphis Center
Wed 03:02:14 PM 32.5197 -88.6031 51° Northeast 492 566 35,000  Level Memphis Center
Wed 03:03:14 PM 32.6056 -88.4781 51° Northeast 492 566 35,000  Level Memphis Center
Wed 03:04:14 PM 32.6953 -88.3503 50° Northeast 492 566 35,000  Level Memphis Center
Wed 03:05:54 PM 32.8281 -88.1522 51° Northeast 519 597 35,000  Level Atlanta Center
Wed 03:06:54 PM 32.9136 -88.0250 51° Northeast 503 579 35,000  Level Atlanta Center
Wed 03:07:54 PM 32.9967 -87.9100 49° Northeast 496 571 35,000  Level Atlanta Center
Wed 03:08:54 PM 33.0867 -87.7700 52° Northeast 490 564 35,000  Level Atlanta Center
Wed 03:09:54 PM 33.1717 -87.6447 51° Northeast 490 564 35,000  Level Atlanta Center
Wed 03:10:54 PM 33.2567 -87.5192 51° Northeast 490 564 35,000  Level Atlanta Center
Wed 03:11:54 PM 33.3394 -87.3931 52° Northeast 484 557 35,000  Level Atlanta Center
Wed 03:12:54 PM 33.4264 -87.2644 51° Northeast 484 557 35,000  Level Atlanta Center
Wed 03:13:54 PM 33.5089 -87.1406 51° Northeast 484 557 35,000  Level Atlanta Center
Wed 03:14:54 PM 33.5956 -87.0117 51° Northeast 484 557 35,000  Level Atlanta Center
Wed 03:15:54 PM 33.6800 -86.8847 51° Northeast 484 557 35,000  Level Atlanta Center
Wed 03:16:54 PM 33.7725 -86.7603 48° Northeast 490 564 35,000  Level Atlanta Center
Wed 03:17:54 PM 33.8628 -86.6431 47° Northeast 490 564 35,000  Level Atlanta Center
Wed 03:18:54 PM 33.9528 -86.5231 48° Northeast 480 552 35,000  Level Atlanta Center
Wed 03:19:54 PM 34.0428 -86.4028 48° Northeast 480 552 35,000  Level Atlanta Center
Wed 03:20:54 PM 34.1328 -86.2800 48° Northeast 480 552 35,000  Level Atlanta Center
Wed 03:21:54 PM 34.2247 -86.1592 47° Northeast 480 552 35,000 -250 Level Atlanta Center
Wed 03:22:54 PM 34.3144 -86.0383 48° Northeast 480 552 34,500 -750 Descending Atlanta Center
Wed 03:23:54 PM 34.4019 -85.9194 48° Northeast 475 547 33,500 -1,050 Descending Atlanta Center
Wed 03:24:54 PM 34.4892 -85.8056 47° Northeast 475 547 32,400 -1,050 Descending Atlanta Center
Wed 03:25:54 PM 34.5742 -85.6861 49° Northeast 461 531 31,400 -950 Descending Atlanta Center
Wed 03:26:54 PM 34.6592 -85.5692 49° Northeast 461 531 30,500 -950 Descending Atlanta Center
Wed 03:27:54 PM 34.7483 -85.4494 48° Northeast 461 531 29,500 -1,000 Descending Atlanta Center
Wed 03:28:54 PM 34.8394 -85.3269 48° Northeast 467 537 28,500 -1,000 Descending Atlanta Center
Wed 03:29:54 PM 34.9283 -85.2017 49° Northeast 477 549 27,500 -1,000 Descending Atlanta Center
Wed 03:30:54 PM 35.0192 -85.0786 48° Northeast 482 555 26,500 -1,000 Descending Atlanta Center
Wed 03:31:54 PM 35.1097 -84.9578 47° Northeast 477 549 25,500 -1,000 Descending Atlanta Center
Wed 03:32:54 PM 35.2003 -84.8394 47° Northeast 477 549 24,500 -1,600 Descending Atlanta Center
Wed 03:33:54 PM 35.2886 -84.7233 47° Northeast 477 549 22,300 -2,550 Descending Atlanta Center
Wed 03:34:54 PM 35.3706 -84.6119 48° Northeast 454 522 19,400 -2,950 Descending Atlanta Center
Wed 03:35:54 PM 35.4503 -84.5106 46° Northeast 426 490 16,400 -3,000 Descending Atlanta Center
Wed 03:36:54 PM 35.5194 -84.4164 48° Northeast 396 456 13,400 -2,750 Descending Atlanta Center
Wed 03:37:54 PM 35.5886 -84.3247 47° Northeast 372 428 10,900 -2,100 Descending Atlanta Center
Wed 03:38:54 PM 35.6556 -84.2686 34° Northeast 341 392 9,200 -2,100 Descending Atlanta Center
Wed 03:39:54 PM 35.7286 -84.2511 11° North 276 318 6,700 -2,650 Descending Atlanta Center
Wed 03:40:54 PM 35.7369 -84.1744 82° East 220 253 3,900 -1,850 Descending Atlanta Center
Wed 03:41:54 PM 35.7286 -84.1028 98° East 186 214 3,000 -900 Descending Atlanta Center

Login

Don't have an account? Register now (free) for customized features, flight alerts, and more!